TOH weather

Torres Airstrip
Loh/Linua, Torba, Vanuatu

Public forecast

Using degrees Celsius for public forecast. Weather courtesy of forecast.io.

METAR (pilot weather report)

Closest report is Sola Airport, 61.2 nm (113.3 km) ESE. Retrieved 2019/06/17 00:00 UTC (56 minutes ago):

NVSC 170000Z 11010KT 9999 BKN020 OVC040 28/24 Q1012

TAF (pilot weather forecast)

Forecast is more than 12 hours old.

Closest forecast is Sola Airport, 61.2 nm (113.3 km) ESE. Retrieved 2019/06/16 00:19 UTC (1 day ago):

TAF NVSC 162220Z 1700/1724 12010G20KT 9999 SCT020 BKN040 INTER 1700/1706 9000 SHRA BKN017